sensor_id;sensor_type;location;lat;lon;timestamp;temperature;humidity
32506;DHT22;18955;51.224;8.482;2023-04-25T00:00:32;7.00;86.90
32506;DHT22;18955;51.224;8.482;2023-04-25T00:02:58;7.00;86.90
32506;DHT22;18955;51.224;8.482;2023-04-25T00:05:26;7.00;86.90
32506;DHT22;18955;51.224;8.482;2023-04-25T00:07:52;7.00;86.80
32506;DHT22;18955;51.224;8.482;2023-04-25T00:10:20;6.90;86.90
32506;DHT22;18955;51.224;8.482;2023-04-25T00:12:46;6.90;86.90
32506;DHT22;18955;51.224;8.482;2023-04-25T00:15:12;6.90;86.90
32506;DHT22;18955;51.224;8.482;2023-04-25T00:17:38;6.90;86.90
32506;DHT22;18955;51.224;8.482;2023-04-25T00:20:05;6.90;86.90
32506;DHT22;18955;51.224;8.482;2023-04-25T00:22:33;6.90;87.00
32506;DHT22;18955;51.224;8.482;2023-04-25T00:25:00;6.90;87.00
32506;DHT22;18955;51.224;8.482;2023-04-25T00:27:26;6.90;86.90
32506;DHT22;18955;51.224;8.482;2023-04-25T00:29:52;6.80;86.80
32506;DHT22;18955;51.224;8.482;2023-04-25T00:32:19;6.90;86.80
32506;DHT22;18955;51.224;8.482;2023-04-25T00:34:45;6.80;86.90
32506;DHT22;18955;51.224;8.482;2023-04-25T00:37:11;6.80;86.80
32506;DHT22;18955;51.224;8.482;2023-04-25T00:39:38;6.80;86.80
32506;DHT22;18955;51.224;8.482;2023-04-25T00:42:05;6.80;86.80
32506;DHT22;18955;51.224;8.482;2023-04-25T00:44:31;6.80;86.70
32506;DHT22;18955;51.224;8.482;2023-04-25T00:46:58;6.80;86.90
32506;DHT22;18955;51.224;8.482;2023-04-25T00:49:25;6.80;86.80
32506;DHT22;18955;51.224;8.482;2023-04-25T00:51:51;6.70;86.80
32506;DHT22;18955;51.224;8.482;2023-04-25T00:54:17;6.70;86.90
32506;DHT22;18955;51.224;8.482;2023-04-25T00:56:45;6.70;86.90
32506;DHT22;18955;51.224;8.482;2023-04-25T00:59:11;6.80;86.90
32506;DHT22;18955;51.224;8.482;2023-04-25T01:01:39;6.70;86.80
32506;DHT22;18955;51.224;8.482;2023-04-25T01:04:06;6.70;86.70
32506;DHT22;18955;51.224;8.482;2023-04-25T01:06:32;6.70;86.80
32506;DHT22;18955;51.224;8.482;2023-04-25T01:08:59;6.70;86.70
32506;DHT22;18955;51.224;8.482;2023-04-25T01:11:26;6.70;86.70
32506;DHT22;18955;51.224;8.482;2023-04-25T01:13:52;6.70;86.80
32506;DHT22;18955;51.224;8.482;2023-04-25T01:16:18;6.60;86.60
32506;DHT22;18955;51.224;8.482;2023-04-25T01:18:45;6.70;86.70
32506;DHT22;18955;51.224;8.482;2023-04-25T01:21:12;6.60;86.80
32506;DHT22;18955;51.224;8.482;2023-04-25T01:23:40;6.60;86.70
32506;DHT22;18955;51.224;8.482;2023-04-25T01:26:09;6.60;86.70
32506;DHT22;18955;51.224;8.482;2023-04-25T01:28:36;6.60;86.70
32506;DHT22;18955;51.224;8.482;2023-04-25T01:31:03;6.60;86.70
32506;DHT22;18955;51.224;8.482;2023-04-25T01:33:30;6.60;86.70
32506;DHT22;18955;51.224;8.482;2023-04-25T01:35:56;6.60;86.70
32506;DHT22;18955;51.224;8.482;2023-04-25T01:38:22;6.70;87.00
32506;DHT22;18955;51.224;8.482;2023-04-25T01:40:51;6.70;86.90
32506;DHT22;18955;51.224;8.482;2023-04-25T01:43:19;6.60;86.80
32506;DHT22;18955;51.224;8.482;2023-04-25T01:45:45;6.50;86.70
32506;DHT22;18955;51.224;8.482;2023-04-25T01:48:13;6.50;86.80
32506;DHT22;18955;51.224;8.482;2023-04-25T01:50:40;6.50;86.70
32506;DHT22;18955;51.224;8.482;2023-04-25T01:53:08;6.60;86.80
32506;DHT22;18955;51.224;8.482;2023-04-25T01:55:35;6.50;87.30
32506;DHT22;18955;51.224;8.482;2023-04-25T01:58:06;6.50;86.70
32506;DHT22;18955;51.224;8.482;2023-04-25T02:00:58;6.50;86.80
32506;DHT22;18955;51.224;8.482;2023-04-25T02:03:31;6.50;86.70
32506;DHT22;18955;51.224;8.482;2023-04-25T02:05:58;6.50;86.80
32506;DHT22;18955;51.224;8.482;2023-04-25T02:08:25;6.40;86.70
32506;DHT22;18955;51.224;8.482;2023-04-25T02:10:54;6.40;86.70
32506;DHT22;18955;51.224;8.482;2023-04-25T02:13:20;6.40;86.70
32506;DHT22;18955;51.224;8.482;2023-04-25T02:15:58;6.40;86.70
32506;DHT22;18955;51.224;8.482;2023-04-25T02:18:24;6.40;86.70
32506;DHT22;18955;51.224;8.482;2023-04-25T02:20:52;6.40;86.80
32506;DHT22;18955;51.224;8.482;2023-04-25T02:23:20;6.40;86.80
32506;DHT22;18955;51.224;8.482;2023-04-25T02:25:46;6.40;86.70
32506;DHT22;18955;51.224;8.482;2023-04-25T02:28:13;6.40;86.70
32506;DHT22;18955;51.224;8.482;2023-04-25T02:30:39;6.30;86.70
32506;DHT22;18955;51.224;8.482;2023-04-25T02:33:06;6.40;86.80
32506;DHT22;18955;51.224;8.482;2023-04-25T02:35:32;6.40;86.60
32506;DHT22;18955;51.224;8.482;2023-04-25T02:37:58;6.30;86.60
32506;DHT22;18955;51.224;8.482;2023-04-25T02:40:24;6.30;86.60
32506;DHT22;18955;51.224;8.482;2023-04-25T02:42:54;6.30;86.60
32506;DHT22;18955;51.224;8.482;2023-04-25T02:45:21;6.30;86.70
32506;DHT22;18955;51.224;8.482;2023-04-25T02:47:47;6.30;86.60
32506;DHT22;18955;51.224;8.482;2023-04-25T02:50:13;6.30;86.70
32506;DHT22;18955;51.224;8.482;2023-04-25T02:52:40;6.30;86.70
32506;DHT22;18955;51.224;8.482;2023-04-25T02:55:16;6.30;86.70
32506;DHT22;18955;51.224;8.482;2023-04-25T02:57:43;6.20;86.60
32506;DHT22;18955;51.224;8.482;2023-04-25T03:00:13;6.20;86.60
32506;DHT22;18955;51.224;8.482;2023-04-25T03:02:40;6.20;86.60
32506;DHT22;18955;51.224;8.482;2023-04-25T03:05:07;6.20;86.60
32506;DHT22;18955;51.224;8.482;2023-04-25T03:07:34;6.20;86.70
32506;DHT22;18955;51.224;8.482;2023-04-25T03:10:00;6.20;86.80
32506;DHT22;18955;51.224;8.482;2023-04-25T03:12:28;6.20;86.80
32506;DHT22;18955;51.224;8.482;2023-04-25T03:14:54;6.20;86.70
32506;DHT22;18955;51.224;8.482;2023-04-25T03:17:20;6.20;86.70
32506;DHT22;18955;51.224;8.482;2023-04-25T03:19:49;6.20;86.80
32506;DHT22;18955;51.224;8.482;2023-04-25T03:22:15;6.20;86.70
32506;DHT22;18955;51.224;8.482;2023-04-25T03:24:41;6.20;86.70
32506;DHT22;18955;51.224;8.482;2023-04-25T03:27:08;6.20;86.80
32506;DHT22;18955;51.224;8.482;2023-04-25T03:29:34;6.20;86.70
32506;DHT22;18955;51.224;8.482;2023-04-25T03:32:03;6.10;86.70
32506;DHT22;18955;51.224;8.482;2023-04-25T03:34:30;6.10;86.60
32506;DHT22;18955;51.224;8.482;2023-04-25T03:36:56;6.10;86.70
32506;DHT22;18955;51.224;8.482;2023-04-25T03:39:23;6.10;86.70
32506;DHT22;18955;51.224;8.482;2023-04-25T03:41:51;6.10;86.70
32506;DHT22;18955;51.224;8.482;2023-04-25T03:44:19;6.10;86.80
32506;DHT22;18955;51.224;8.482;2023-04-25T03:46:45;6.10;86.80
32506;DHT22;18955;51.224;8.482;2023-04-25T03:49:12;6.10;86.80
32506;DHT22;18955;51.224;8.482;2023-04-25T03:51:56;6.10;86.90
32506;DHT22;18955;51.224;8.482;2023-04-25T03:54:22;6.10;86.90
32506;DHT22;18955;51.224;8.482;2023-04-25T03:56:56;6.00;86.90
32506;DHT22;18955;51.224;8.482;2023-04-25T03:59:26;6.00;86.90
32506;DHT22;18955;51.224;8.482;2023-04-25T04:01:53;6.10;86.80
32506;DHT22;18955;51.224;8.482;2023-04-25T04:04:20;6.00;86.80
32506;DHT22;18955;51.224;8.482;2023-04-25T04:06:46;6.10;86.80
32506;DHT22;18955;51.224;8.482;2023-04-25T04:09:21;6.00;86.80
32506;DHT22;18955;51.224;8.482;2023-04-25T04:11:47;6.00;86.80
32506;DHT22;18955;51.224;8.482;2023-04-25T04:14:14;6.00;86.90
32506;DHT22;18955;51.224;8.482;2023-04-25T04:16:44;6.00;86.80
32506;DHT22;18955;51.224;8.482;2023-04-25T04:19:11;6.00;86.80
32506;DHT22;18955;51.224;8.482;2023-04-25T04:21:39;6.00;86.80
32506;DHT22;18955;51.224;8.482;2023-04-25T04:24:07;6.00;86.90
32506;DHT22;18955;51.224;8.482;2023-04-25T04:26:46;6.00;86.90
32506;DHT22;18955;51.224;8.482;2023-04-25T04:29:35;6.00;87.00
32506;DHT22;18955;51.224;8.482;2023-04-25T04:32:16;6.00;86.90
32506;DHT22;18955;51.224;8.482;2023-04-25T04:34:43;6.10;87.00
32506;DHT22;18955;51.224;8.482;2023-04-25T04:37:13;5.90;86.90
32506;DHT22;18955;51.224;8.482;2023-04-25T04:39:41;5.90;86.80
32506;DHT22;18955;51.224;8.482;2023-04-25T04:42:19;5.90;86.90
32506;DHT22;18955;51.224;8.482;2023-04-25T04:45:00;5.90;87.00
32506;DHT22;18955;51.224;8.482;2023-04-25T04:47:55;5.90;87.00
32506;DHT22;18955;51.224;8.482;2023-04-25T04:50:34;5.90;87.00
32506;DHT22;18955;51.224;8.482;2023-04-25T04:53:21;5.90;87.00
32506;DHT22;18955;51.224;8.482;2023-04-25T04:56:06;5.90;86.90
32506;DHT22;18955;51.224;8.482;2023-04-25T04:58:53;6.00;87.00
32506;DHT22;18955;51.224;8.482;2023-04-25T05:01:42;5.90;86.90
32506;DHT22;18955;51.224;8.482;2023-04-25T05:04:43;5.90;86.90
32506;DHT22;18955;51.224;8.482;2023-04-25T05:07:24;5.90;86.90
32506;DHT22;18955;51.224;8.482;2023-04-25T05:10:23;5.90;87.00
32506;DHT22;18955;51.224;8.482;2023-04-25T05:12:55;5.90;86.90
32506;DHT22;18955;51.224;8.482;2023-04-25T05:15:39;5.90;86.90
32506;DHT22;18955;51.224;8.482;2023-04-25T05:18:17;5.90;86.90
32506;DHT22;18955;51.224;8.482;2023-04-25T05:21:06;5.90;87.00
32506;DHT22;18955;51.224;8.482;2023-04-25T05:23:48;5.90;87.00
32506;DHT22;18955;51.224;8.482;2023-04-25T05:26:52;5.80;86.80
32506;DHT22;18955;51.224;8.482;2023-04-25T05:29:28;5.80;87.00
32506;DHT22;18955;51.224;8.482;2023-04-25T05:32:06;5.80;87.10
32506;DHT22;18955;51.224;8.482;2023-04-25T05:34:34;5.80;87.10
32506;DHT22;18955;51.224;8.482;2023-04-25T05:37:04;5.80;87.10
32506;DHT22;18955;51.224;8.482;2023-04-25T05:39:33;5.90;87.10
32506;DHT22;18955;51.224;8.482;2023-04-25T05:42:17;5.80;87.00
32506;DHT22;18955;51.224;8.482;2023-04-25T05:45:12;5.80;86.90
32506;DHT22;18955;51.224;8.482;2023-04-25T05:47:57;5.80;86.90
32506;DHT22;18955;51.224;8.482;2023-04-25T05:50:38;5.80;87.00
32506;DHT22;18955;51.224;8.482;2023-04-25T05:53:16;5.80;87.00
32506;DHT22;18955;51.224;8.482;2023-04-25T05:55:43;5.80;86.90
32506;DHT22;18955;51.224;8.482;2023-04-25T05:58:30;5.80;87.00
32506;DHT22;18955;51.224;8.482;2023-04-25T06:00:57;5.80;87.00
32506;DHT22;18955;51.224;8.482;2023-04-25T06:03:24;6.20;87.20
32506;DHT22;18955;51.224;8.482;2023-04-25T06:05:50;5.80;87.00
32506;DHT22;18955;51.224;8.482;2023-04-25T06:08:17;5.80;87.00
32506;DHT22;18955;51.224;8.482;2023-04-25T06:10:43;5.70;87.00
32506;DHT22;18955;51.224;8.482;2023-04-25T06:13:09;5.80;87.00
32506;DHT22;18955;51.224;8.482;2023-04-25T06:15:36;5.80;87.00
32506;DHT22;18955;51.224;8.482;2023-04-25T06:18:02;5.70;87.00
32506;DHT22;18955;51.224;8.482;2023-04-25T06:20:29;5.70;87.10
32506;DHT22;18955;51.224;8.482;2023-04-25T06:22:58;5.70;87.10
32506;DHT22;18955;51.224;8.482;2023-04-25T06:25:33;5.70;87.10
32506;DHT22;18955;51.224;8.482;2023-04-25T06:27:59;5.70;87.20
32506;DHT22;18955;51.224;8.482;2023-04-25T06:30:26;5.70;87.10
32506;DHT22;18955;51.224;8.482;2023-04-25T06:32:56;5.70;87.10
32506;DHT22;18955;51.224;8.482;2023-04-25T06:35:23;5.70;87.10
32506;DHT22;18955;51.224;8.482;2023-04-25T06:37:50;5.70;87.10
32506;DHT22;18955;51.224;8.482;2023-04-25T06:40:19;5.70;87.10
32506;DHT22;18955;51.224;8.482;2023-04-25T06:42:45;5.70;87.10
32506;DHT22;18955;51.224;8.482;2023-04-25T06:45:38;5.70;87.10
32506;DHT22;18955;51.224;8.482;2023-04-25T06:48:04;5.70;87.10
32506;DHT22;18955;51.224;8.482;2023-04-25T06:50:30;5.70;87.10
32506;DHT22;18955;51.224;8.482;2023-04-25T06:52:57;5.70;87.10
32506;DHT22;18955;51.224;8.482;2023-04-25T06:55:23;5.70;87.10
32506;DHT22;18955;51.224;8.482;2023-04-25T06:58:03;5.70;87.10
32506;DHT22;18955;51.224;8.482;2023-04-25T07:00:51;5.70;87.20
32506;DHT22;18955;51.224;8.482;2023-04-25T07:03:20;5.70;87.20
32506;DHT22;18955;51.224;8.482;2023-04-25T07:05:47;5.60;87.00
32506;DHT22;18955;51.224;8.482;2023-04-25T07:08:13;5.60;87.10
32506;DHT22;18955;51.224;8.482;2023-04-25T07:10:39;5.60;87.10
32506;DHT22;18955;51.224;8.482;2023-04-25T07:13:06;5.60;87.20
32506;DHT22;18955;51.224;8.482;2023-04-25T07:15:32;5.70;87.30
32506;DHT22;18955;51.224;8.482;2023-04-25T07:18:00;5.70;87.30
32506;DHT22;18955;51.224;8.482;2023-04-25T07:20:26;5.60;87.10
32506;DHT22;18955;51.224;8.482;2023-04-25T07:22:54;5.70;87.20
32506;DHT22;18955;51.224;8.482;2023-04-25T07:25:20;5.70;87.10
32506;DHT22;18955;51.224;8.482;2023-04-25T07:27:46;5.70;87.10
32506;DHT22;18955;51.224;8.482;2023-04-25T07:30:16;5.70;87.20
32506;DHT22;18955;51.224;8.482;2023-04-25T07:32:42;5.70;87.20
32506;DHT22;18955;51.224;8.482;2023-04-25T07:35:09;5.60;87.10
32506;DHT22;18955;51.224;8.482;2023-04-25T07:37:36;5.60;87.10
32506;DHT22;18955;51.224;8.482;2023-04-25T07:40:10;5.60;87.20
32506;DHT22;18955;51.224;8.482;2023-04-25T07:42:42;5.60;87.60
32506;DHT22;18955;51.224;8.482;2023-04-25T07:45:09;5.60;87.30
32506;DHT22;18955;51.224;8.482;2023-04-25T07:47:37;5.70;87.30
32506;DHT22;18955;51.224;8.482;2023-04-25T07:50:05;5.60;87.10
32506;DHT22;18955;51.224;8.482;2023-04-25T07:52:32;5.60;87.10
32506;DHT22;18955;51.224;8.482;2023-04-25T07:55:08;5.60;87.20
32506;DHT22;18955;51.224;8.482;2023-04-25T07:57:51;5.60;87.30
32506;DHT22;18955;51.224;8.482;2023-04-25T08:00:17;5.60;87.20
32506;DHT22;18955;51.224;8.482;2023-04-25T08:02:52;5.70;86.90
32506;DHT22;18955;51.224;8.482;2023-04-25T08:05:18;5.70;87.20
32506;DHT22;18955;51.224;8.482;2023-04-25T08:07:50;5.70;87.10
32506;DHT22;18955;51.224;8.482;2023-04-25T08:10:16;5.70;87.00
32506;DHT22;18955;51.224;8.482;2023-04-25T08:12:43;5.70;87.10
32506;DHT22;18955;51.224;8.482;2023-04-25T08:15:10;5.70;86.80
32506;DHT22;18955;51.224;8.482;2023-04-25T08:17:39;5.70;86.80
32506;DHT22;18955;51.224;8.482;2023-04-25T08:20:06;5.70;86.70
32506;DHT22;18955;51.224;8.482;2023-04-25T08:22:34;5.80;87.00
32506;DHT22;18955;51.224;8.482;2023-04-25T08:25:21;5.80;86.80
32506;DHT22;18955;51.224;8.482;2023-04-25T08:27:48;5.80;86.90
32506;DHT22;18955;51.224;8.482;2023-04-25T08:30:16;5.80;86.80
32506;DHT22;18955;51.224;8.482;2023-04-25T08:32:42;5.80;86.70
32506;DHT22;18955;51.224;8.482;2023-04-25T08:35:37;5.80;86.70
32506;DHT22;18955;51.224;8.482;2023-04-25T08:38:03;5.80;86.80
32506;DHT22;18955;51.224;8.482;2023-04-25T08:40:34;5.80;86.80
32506;DHT22;18955;51.224;8.482;2023-04-25T08:43:07;5.80;86.80
32506;DHT22;18955;51.224;8.482;2023-04-25T08:45:41;5.80;86.80
32506;DHT22;18955;51.224;8.482;2023-04-25T08:48:16;5.80;86.80
32506;DHT22;18955;51.224;8.482;2023-04-25T08:51:02;5.80;86.90
32506;DHT22;18955;51.224;8.482;2023-04-25T08:53:31;5.80;86.90
32506;DHT22;18955;51.224;8.482;2023-04-25T08:56:01;5.90;86.90
32506;DHT22;18955;51.224;8.482;2023-04-25T08:58:28;5.80;86.90
32506;DHT22;18955;51.224;8.482;2023-04-25T09:00:55;5.90;86.90
32506;DHT22;18955;51.224;8.482;2023-04-25T09:03:24;5.80;86.80
32506;DHT22;18955;51.224;8.482;2023-04-25T09:05:51;5.90;87.00
32506;DHT22;18955;51.224;8.482;2023-04-25T09:08:18;5.90;87.00
32506;DHT22;18955;51.224;8.482;2023-04-25T09:10:44;5.90;87.00
32506;DHT22;18955;51.224;8.482;2023-04-25T09:13:13;5.90;86.90
32506;DHT22;18955;51.224;8.482;2023-04-25T09:16:04;5.90;86.80
32506;DHT22;18955;51.224;8.482;2023-04-25T09:19:05;5.90;86.90
32506;DHT22;18955;51.224;8.482;2023-04-25T09:21:34;5.90;86.80
32506;DHT22;18955;51.224;8.482;2023-04-25T09:24:01;5.90;86.80
32506;DHT22;18955;51.224;8.482;2023-04-25T09:26:27;5.90;86.70
32506;DHT22;18955;51.224;8.482;2023-04-25T09:29:06;5.90;86.70
32506;DHT22;18955;51.224;8.482;2023-04-25T09:31:34;6.00;86.80
32506;DHT22;18955;51.224;8.482;2023-04-25T09:34:03;6.00;86.80
32506;DHT22;18955;51.224;8.482;2023-04-25T09:36:37;6.00;86.90
32506;DHT22;18955;51.224;8.482;2023-04-25T09:39:34;6.00;86.90
32506;DHT22;18955;51.224;8.482;2023-04-25T09:42:10;6.00;86.90
32506;DHT22;18955;51.224;8.482;2023-04-25T09:44:36;6.00;87.00
32506;DHT22;18955;51.224;8.482;2023-04-25T09:47:02;6.00;87.00
32506;DHT22;18955;51.224;8.482;2023-04-25T09:49:30;6.00;87.20
32506;DHT22;18955;51.224;8.482;2023-04-25T09:52:02;6.00;87.10
32506;DHT22;18955;51.224;8.482;2023-04-25T09:54:35;6.10;87.10
32506;DHT22;18955;51.224;8.482;2023-04-25T09:59:45;6.10;87.00
32506;DHT22;18955;51.224;8.482;2023-04-25T10:02:12;6.10;86.80
32506;DHT22;18955;51.224;8.482;2023-04-25T10:04:41;6.10;86.70
32506;DHT22;18955;51.224;8.482;2023-04-25T10:07:28;6.10;86.70
32506;DHT22;18955;51.224;8.482;2023-04-25T10:09:59;6.20;86.70
32506;DHT22;18955;51.224;8.482;2023-04-25T10:12:27;6.10;86.70
32506;DHT22;18955;51.224;8.482;2023-04-25T10:14:54;6.10;86.70
32506;DHT22;18955;51.224;8.482;2023-04-25T10:17:21;6.20;86.70
32506;DHT22;18955;51.224;8.482;2023-04-25T10:19:47;6.20;86.70
32506;DHT22;18955;51.224;8.482;2023-04-25T10:22:23;6.20;86.70
32506;DHT22;18955;51.224;8.482;2023-04-25T10:24:52;6.20;86.60
32506;DHT22;18955;51.224;8.482;2023-04-25T10:27:18;6.20;86.70
32506;DHT22;18955;51.224;8.482;2023-04-25T10:29:45;6.20;86.70
32506;DHT22;18955;51.224;8.482;2023-04-25T10:32:25;6.30;86.70
32506;DHT22;18955;51.224;8.482;2023-04-25T10:34:52;6.30;86.60
32506;DHT22;18955;51.224;8.482;2023-04-25T10:37:18;6.30;86.60
32506;DHT22;18955;51.224;8.482;2023-04-25T10:39:45;6.30;86.60
32506;DHT22;18955;51.224;8.482;2023-04-25T10:42:12;6.30;86.50
32506;DHT22;18955;51.224;8.482;2023-04-25T10:44:38;6.40;86.60
32506;DHT22;18955;51.224;8.482;2023-04-25T10:47:06;6.40;86.50
32506;DHT22;18955;51.224;8.482;2023-04-25T10:49:42;6.40;86.60
32506;DHT22;18955;51.224;8.482;2023-04-25T10:54:54;6.40;86.40
32506;DHT22;18955;51.224;8.482;2023-04-25T10:57:41;6.40;86.40
32506;DHT22;18955;51.224;8.482;2023-04-25T11:00:18;6.40;86.40
32506;DHT22;18955;51.224;8.482;2023-04-25T11:02:51;6.50;86.50
32506;DHT22;18955;51.224;8.482;2023-04-25T11:05:22;6.50;86.40
32506;DHT22;18955;51.224;8.482;2023-04-25T11:07:49;6.40;86.50
32506;DHT22;18955;51.224;8.482;2023-04-25T11:10:17;6.50;86.60
32506;DHT22;18955;51.224;8.482;2023-04-25T11:12:45;6.50;86.70
32506;DHT22;18955;51.224;8.482;2023-04-25T11:15:12;6.50;86.60
32506;DHT22;18955;51.224;8.482;2023-04-25T11:17:39;6.50;86.60
32506;DHT22;18955;51.224;8.482;2023-04-25T11:20:07;6.50;86.60
32506;DHT22;18955;51.224;8.482;2023-04-25T11:22:38;6.50;86.50
32506;DHT22;18955;51.224;8.482;2023-04-25T11:25:11;6.50;86.50
32506;DHT22;18955;51.224;8.482;2023-04-25T11:27:49;6.60;86.60
32506;DHT22;18955;51.224;8.482;2023-04-25T11:30:16;6.60;86.60
32506;DHT22;18955;51.224;8.482;2023-04-25T11:32:43;6.60;86.60
32506;DHT22;18955;51.224;8.482;2023-04-25T11:35:10;6.60;86.60
32506;DHT22;18955;51.224;8.482;2023-04-25T11:37:36;6.60;86.50
32506;DHT22;18955;51.224;8.482;2023-04-25T11:40:03;6.70;86.80
32506;DHT22;18955;51.224;8.482;2023-04-25T11:42:32;6.60;86.60
32506;DHT22;18955;51.224;8.482;2023-04-25T11:44:59;6.70;86.60
32506;DHT22;18955;51.224;8.482;2023-04-25T11:47:32;6.70;86.60
32506;DHT22;18955;51.224;8.482;2023-04-25T11:50:00;6.70;86.60
32506;DHT22;18955;51.224;8.482;2023-04-25T11:52:39;6.70;86.60
32506;DHT22;18955;51.224;8.482;2023-04-25T11:55:16;6.70;86.60
32506;DHT22;18955;51.224;8.482;2023-04-25T11:57:44;7.00;86.80
32506;DHT22;18955;51.224;8.482;2023-04-25T12:00:21;6.70;86.60
32506;DHT22;18955;51.224;8.482;2023-04-25T12:02:53;6.70;86.60
32506;DHT22;18955;51.224;8.482;2023-04-25T12:05:20;6.80;86.60
32506;DHT22;18955;51.224;8.482;2023-04-25T12:07:46;6.80;86.70
32506;DHT22;18955;51.224;8.482;2023-04-25T12:10:14;6.80;86.70
32506;DHT22;18955;51.224;8.482;2023-04-25T12:12:42;6.80;86.70
32506;DHT22;18955;51.224;8.482;2023-04-25T12:15:16;6.80;86.70
32506;DHT22;18955;51.224;8.482;2023-04-25T12:17:49;6.80;86.70
32506;DHT22;18955;51.224;8.482;2023-04-25T12:20:18;6.80;86.70
32506;DHT22;18955;51.224;8.482;2023-04-25T12:22:48;6.80;86.70
32506;DHT22;18955;51.224;8.482;2023-04-25T12:25:40;6.90;86.70
32506;DHT22;18955;51.224;8.482;2023-04-25T12:28:16;6.90;85.20
32506;DHT22;18955;51.224;8.482;2023-04-25T12:31:04;6.90;85.80
32506;DHT22;18955;51.224;8.482;2023-04-25T12:33:32;7.00;85.90
32506;DHT22;18955;51.224;8.482;2023-04-25T12:36:03;6.60;85.60
32506;DHT22;18955;51.224;8.482;2023-04-25T12:38:39;7.00;85.80
32506;DHT22;18955;51.224;8.482;2023-04-25T12:41:06;7.00;85.80
32506;DHT22;18955;51.224;8.482;2023-04-25T12:43:32;7.00;85.90
32506;DHT22;18955;51.224;8.482;2023-04-25T12:45:59;7.00;85.90
32506;DHT22;18955;51.224;8.482;2023-04-25T12:48:25;7.00;86.00
32506;DHT22;18955;51.224;8.482;2023-04-25T12:50:52;7.10;86.00
32506;DHT22;18955;51.224;8.482;2023-04-25T12:53:19;7.00;86.00
32506;DHT22;18955;51.224;8.482;2023-04-25T12:55:46;7.00;86.10
32506;DHT22;18955;51.224;8.482;2023-04-25T12:58:17;7.00;86.20
32506;DHT22;18955;51.224;8.482;2023-04-25T13:00:44;7.10;86.30
32506;DHT22;18955;51.224;8.482;2023-04-25T13:03:10;7.00;86.20
32506;DHT22;18955;51.224;8.482;2023-04-25T13:05:38;7.00;86.20
32506;DHT22;18955;51.224;8.482;2023-04-25T13:08:04;7.10;86.20
32506;DHT22;18955;51.224;8.482;2023-04-25T13:10:31;7.00;86.10
32506;DHT22;18955;51.224;8.482;2023-04-25T13:12:59;7.10;86.10
32506;DHT22;18955;51.224;8.482;2023-04-25T13:15:27;7.10;86.10
32506;DHT22;18955;51.224;8.482;2023-04-25T13:17:53;7.10;86.00
32506;DHT22;18955;51.224;8.482;2023-04-25T13:20:19;7.10;86.10
32506;DHT22;18955;51.224;8.482;2023-04-25T13:22:48;7.10;85.90
32506;DHT22;18955;51.224;8.482;2023-04-25T13:25:14;7.10;85.90
32506;DHT22;18955;51.224;8.482;2023-04-25T13:27:41;7.10;86.00
32506;DHT22;18955;51.224;8.482;2023-04-25T13:30:07;7.20;86.00
32506;DHT22;18955;51.224;8.482;2023-04-25T13:32:38;7.20;86.00
32506;DHT22;18955;51.224;8.482;2023-04-25T13:35:11;7.20;86.10
32506;DHT22;18955;51.224;8.482;2023-04-25T13:37:38;7.30;86.30
32506;DHT22;18955;51.224;8.482;2023-04-25T13:40:07;7.20;86.10
32506;DHT22;18955;51.224;8.482;2023-04-25T13:42:35;7.20;86.20
32506;DHT22;18955;51.224;8.482;2023-04-25T13:45:02;7.20;86.20
32506;DHT22;18955;51.224;8.482;2023-04-25T13:47:29;7.20;86.20
32506;DHT22;18955;51.224;8.482;2023-04-25T13:49:56;7.30;86.30
32506;DHT22;18955;51.224;8.482;2023-04-25T13:52:22;7.30;86.30
32506;DHT22;18955;51.224;8.482;2023-04-25T13:54:50;7.30;86.20
32506;DHT22;18955;51.224;8.482;2023-04-25T13:57:18;7.40;86.30
32506;DHT22;18955;51.224;8.482;2023-04-25T13:59:44;7.40;86.30
32506;DHT22;18955;51.224;8.482;2023-04-25T14:02:10;7.40;86.30
32506;DHT22;18955;51.224;8.482;2023-04-25T14:04:36;7.40;85.90
32506;DHT22;18955;51.224;8.482;2023-04-25T14:07:03;7.40;86.20
32506;DHT22;18955;51.224;8.482;2023-04-25T14:09:29;7.40;86.00
32506;DHT22;18955;51.224;8.482;2023-04-25T14:11:56;7.40;86.10
32506;DHT22;18955;51.224;8.482;2023-04-25T14:14:22;7.40;86.10
32506;DHT22;18955;51.224;8.482;2023-04-25T14:16:50;7.40;86.20
32506;DHT22;18955;51.224;8.482;2023-04-25T14:19:17;7.40;86.30
32506;DHT22;18955;51.224;8.482;2023-04-25T14:21:44;7.40;86.30
32506;DHT22;18955;51.224;8.482;2023-04-25T14:24:10;7.40;86.30
32506;DHT22;18955;51.224;8.482;2023-04-25T14:26:40;7.40;86.40
32506;DHT22;18955;51.224;8.482;2023-04-25T14:29:06;7.40;86.40
32506;DHT22;18955;51.224;8.482;2023-04-25T14:31:38;7.40;86.40
32506;DHT22;18955;51.224;8.482;2023-04-25T14:34:05;7.50;86.50
32506;DHT22;18955;51.224;8.482;2023-04-25T14:36:32;7.50;86.50
32506;DHT22;18955;51.224;8.482;2023-04-25T14:38:58;7.50;86.60
32506;DHT22;18955;51.224;8.482;2023-04-25T14:41:25;7.50;86.60
32506;DHT22;18955;51.224;8.482;2023-04-25T14:43:52;7.50;86.60
32506;DHT22;18955;51.224;8.482;2023-04-25T14:46:20;7.50;86.50
32506;DHT22;18955;51.224;8.482;2023-04-25T14:48:46;7.50;86.60
32506;DHT22;18955;51.224;8.482;2023-04-25T14:51:13;7.50;86.60
32506;DHT22;18955;51.224;8.482;2023-04-25T14:53:40;7.50;86.50
32506;DHT22;18955;51.224;8.482;2023-04-25T14:56:07;7.50;86.50
32506;DHT22;18955;51.224;8.482;2023-04-25T14:58:33;7.50;86.40
32506;DHT22;18955;51.224;8.482;2023-04-25T15:01:00;7.50;86.40
32506;DHT22;18955;51.224;8.482;2023-04-25T15:03:27;7.50;86.40
32506;DHT22;18955;51.224;8.482;2023-04-25T15:05:56;7.60;86.40
32506;DHT22;18955;51.224;8.482;2023-04-25T15:08:22;7.60;86.50
32506;DHT22;18955;51.224;8.482;2023-04-25T15:10:49;7.60;86.60
32506;DHT22;18955;51.224;8.482;2023-04-25T15:13:18;7.60;86.40
32506;DHT22;18955;51.224;8.482;2023-04-25T15:15:45;7.70;86.50
32506;DHT22;18955;51.224;8.482;2023-04-25T15:18:18;7.80;86.10
32506;DHT22;18955;51.224;8.482;2023-04-25T15:20:44;7.90;85.60
32506;DHT22;18955;51.224;8.482;2023-04-25T15:23:11;8.00;85.40
32506;DHT22;18955;51.224;8.482;2023-04-25T15:25:37;8.00;85.30
32506;DHT22;18955;51.224;8.482;2023-04-25T15:28:03;8.10;85.30
32506;DHT22;18955;51.224;8.482;2023-04-25T15:30:29;8.20;84.90
32506;DHT22;18955;51.224;8.482;2023-04-25T15:32:55;8.30;84.80
32506;DHT22;18955;51.224;8.482;2023-04-25T15:35:22;8.30;84.60
32506;DHT22;18955;51.224;8.482;2023-04-25T15:37:48;8.40;84.40
32506;DHT22;18955;51.224;8.482;2023-04-25T15:40:16;8.40;84.10
32506;DHT22;18955;51.224;8.482;2023-04-25T15:42:45;8.50;84.00
32506;DHT22;18955;51.224;8.482;2023-04-25T15:45:13;8.50;83.90
32506;DHT22;18955;51.224;8.482;2023-04-25T15:47:43;8.50;83.90
32506;DHT22;18955;51.224;8.482;2023-04-25T15:50:10;8.40;83.90
32506;DHT22;18955;51.224;8.482;2023-04-25T15:52:37;8.30;84.00
32506;DHT22;18955;51.224;8.482;2023-04-25T15:55:04;8.30;84.30
32506;DHT22;18955;51.224;8.482;2023-04-25T15:57:32;8.30;84.40
32506;DHT22;18955;51.224;8.482;2023-04-25T15:59:59;8.30;84.60
32506;DHT22;18955;51.224;8.482;2023-04-25T16:02:25;8.40;84.80
32506;DHT22;18955;51.224;8.482;2023-04-25T16:04:51;8.40;84.80
32506;DHT22;18955;51.224;8.482;2023-04-25T16:07:18;8.40;84.60